createdAt,value
2018-11-11T00:02:28.265Z,71.20
2018-11-11T00:04:56.716Z,64.80
2018-11-11T00:07:25.192Z,62.37
2018-11-11T00:09:53.616Z,63.20
2018-11-11T00:12:22.132Z,71.30
2018-11-11T00:14:50.556Z,74.23
2018-11-11T00:17:19.024Z,74.40
2018-11-11T00:19:47.537Z,61.77
2018-11-11T00:22:15.996Z,66.07
2018-11-11T00:24:44.476Z,66.10
2018-11-11T00:27:12.956Z,63.13
2018-11-11T00:29:41.384Z,67.53
2018-11-11T00:32:10.136Z,76.63
2018-11-11T00:34:38.584Z,72.03
2018-11-11T00:37:07.110Z,64.03
2018-11-11T00:39:35.602Z,80.50
2018-11-11T00:42:04.040Z,79.70
2018-11-11T00:44:32.500Z,78.87
2018-11-11T00:47:00.947Z,78.80
2018-11-11T00:49:29.382Z,93.53
2018-11-11T00:51:57.832Z,66.43
2018-11-11T00:54:26.264Z,72.23
2018-11-11T00:56:54.807Z,63.70
2018-11-11T00:59:23.260Z,56.53
2018-11-11T01:01:51.724Z,64.13
2018-11-11T01:04:20.152Z,57.23
2018-11-11T01:06:48.592Z,82.40
2018-11-11T01:09:17.043Z,68.17
2018-11-11T01:11:45.499Z,64.53
2018-11-11T01:14:13.982Z,65.80
2018-11-11T01:16:42.404Z,65.77
2018-11-11T01:19:10.845Z,66.57
2018-11-11T01:21:39.303Z,69.03
2018-11-11T01:24:07.759Z,66.57
2018-11-11T01:26:36.325Z,70.93
2018-11-11T01:29:05.073Z,73.80
2018-11-11T01:31:33.574Z,66.90
2018-11-11T01:34:02.291Z,67.57
2018-11-11T01:36:30.768Z,60.90
2018-11-11T01:38:59.239Z,54.47
2018-11-11T01:41:27.736Z,57.43
2018-11-11T01:43:56.184Z,60.33
2018-11-11T01:46:24.604Z,63.33
2018-11-11T01:48:53.052Z,70.40
2018-11-11T01:51:21.491Z,56.17
2018-11-11T01:53:49.931Z,59.33
2018-11-11T01:56:18.367Z,66.07
2018-11-11T01:58:46.857Z,63.27
2018-11-11T02:01:15.313Z,58.90
2018-11-11T02:03:43.856Z,64.17
2018-11-11T02:06:12.292Z,53.90
2018-11-11T02:08:40.752Z,57.73
2018-11-11T02:11:09.232Z,61.67
2018-11-11T02:13:37.708Z,53.33
2018-11-11T02:16:06.633Z,58.63
2018-11-11T02:18:35.157Z,52.63
2018-11-11T02:21:03.667Z,57.37
2018-11-11T02:23:32.096Z,53.27
2018-11-11T02:26:00.527Z,48.23
2018-11-11T02:28:29.005Z,56.33
2018-11-11T02:30:57.444Z,53.53
2018-11-11T02:33:25.917Z,59.83
2018-11-11T02:35:54.341Z,55.43
2018-11-11T02:38:22.789Z,42.93
2018-11-11T02:40:51.297Z,60.47
2018-11-11T02:43:19.733Z,59.30
2018-11-11T02:45:48.188Z,65.00
2018-11-11T02:48:16.613Z,67.07
2018-11-11T02:50:45.064Z,50.13
2018-11-11T02:53:13.518Z,76.93
2018-11-11T02:55:41.953Z,59.27
2018-11-11T02:58:10.383Z,55.80
2018-11-11T03:00:38.832Z,48.23
2018-11-11T03:03:07.305Z,56.03
2018-11-11T03:05:35.800Z,57.40
2018-11-11T03:08:04.242Z,61.73
2018-11-11T03:10:32.684Z,64.20
2018-11-11T03:13:01.104Z,68.37
2018-11-11T03:15:29.548Z,66.33
2018-11-11T03:17:57.979Z,67.40
2018-11-11T03:20:26.430Z,61.23
2018-11-11T03:22:54.851Z,64.37
2018-11-11T03:25:23.303Z,61.00
2018-11-11T03:27:51.765Z,57.57
2018-11-11T03:30:20.216Z,67.67
2018-11-11T03:32:48.660Z,63.40
2018-11-11T03:35:17.137Z,79.43
2018-11-11T03:37:46.270Z,77.83
2018-11-11T03:40:16.301Z,73.67
2018-11-11T03:42:45.079Z,57.90
2018-11-11T03:45:15.132Z,69.73
2018-11-11T03:47:44.597Z,68.60
2018-11-11T03:50:13.120Z,69.03
2018-11-11T03:52:41.940Z,63.30
2018-11-11T03:55:10.756Z,55.10
2018-11-11T03:57:39.224Z,45.80
2018-11-11T04:00:09.455Z,66.10
2018-11-11T04:02:38.021Z,52.63
2018-11-11T04:05:07.007Z,62.73
2018-11-11T04:07:35.460Z,65.53
2018-11-11T04:10:04.393Z,59.37
2018-11-11T04:12:32.863Z,65.30
2018-11-11T04:15:01.316Z,70.20
2018-11-11T04:17:29.804Z,78.37
2018-11-11T04:19:58.229Z,73.67
2018-11-11T04:22:26.672Z,81.50
2018-11-11T04:24:55.127Z,69.13
2018-11-11T04:27:23.596Z,61.17
2018-11-11T04:29:52.019Z,66.00
2018-11-11T04:32:20.527Z,65.93
2018-11-11T04:34:48.980Z,75.73
2018-11-11T04:37:17.435Z,81.57
2018-11-11T04:39:45.856Z,77.27
2018-11-11T04:42:14.310Z,85.60
2018-11-11T04:44:42.743Z,76.27
2018-11-11T04:47:11.252Z,86.20
2018-11-11T04:49:39.687Z,71.10
2018-11-11T04:52:08.134Z,88.93
2018-11-11T04:54:36.602Z,76.80
2018-11-11T04:57:05.182Z,61.53
2018-11-11T04:59:33.592Z,64.40
2018-11-11T05:02:02.048Z,65.00
2018-11-11T05:04:30.528Z,88.27
2018-11-11T05:06:58.969Z,74.20
2018-11-11T05:09:27.409Z,73.43
2018-11-11T05:11:55.829Z,59.23
2018-11-11T05:14:24.277Z,67.53
2018-11-11T05:16:52.700Z,66.47
2018-11-11T05:19:21.152Z,69.03
2018-11-11T05:21:49.626Z,72.67
2018-11-11T05:24:18.029Z,69.73
2018-11-11T05:26:46.500Z,61.50
2018-11-11T05:29:14.961Z,53.03
2018-11-11T05:31:43.396Z,54.37
2018-11-11T05:34:11.846Z,67.93
2018-11-11T05:36:40.293Z,67.97
2018-11-11T05:39:10.512Z,56.80
2018-11-11T05:41:39.009Z,69.17
2018-11-11T05:44:07.987Z,58.30
2018-11-11T05:46:36.426Z,63.70
2018-11-11T05:49:05.069Z,50.60
2018-11-11T05:51:33.505Z,51.23
2018-11-11T05:54:02.116Z,67.80
2018-11-11T05:56:30.557Z,66.43
2018-11-11T05:58:59.011Z,58.37
2018-11-11T06:01:27.505Z,77.30
2018-11-11T06:03:55.966Z,71.17
2018-11-11T06:06:24.401Z,66.03
2018-11-11T06:08:52.864Z,68.20
2018-11-11T06:11:21.309Z,60.67
2018-11-11T06:13:49.751Z,50.43
2018-11-11T06:16:18.191Z,57.97
2018-11-11T06:18:46.652Z,40.17
2018-11-11T06:21:15.128Z,40.30
2018-11-11T06:23:43.659Z,40.13
2018-11-11T06:26:12.101Z,50.53
2018-11-11T06:28:40.663Z,71.53
2018-11-11T06:31:09.092Z,63.60
2018-11-11T06:33:37.536Z,56.23
2018-11-11T06:36:06.029Z,54.10
2018-11-11T06:38:34.478Z,52.73
2018-11-11T06:41:02.929Z,56.90
2018-11-11T06:43:31.362Z,44.07
2018-11-11T06:45:59.805Z,51.23
2018-11-11T06:48:28.244Z,71.37
2018-11-11T06:50:56.681Z,58.93
2018-11-11T06:53:25.108Z,64.43
2018-11-11T06:55:53.544Z,58.90
2018-11-11T06:58:21.993Z,58.80
2018-11-11T07:00:50.468Z,54.47
2018-11-11T07:03:30.172Z,50.03
2018-11-11T07:05:58.616Z,42.93
2018-11-11T07:08:27.040Z,37.93
2018-11-11T07:10:55.492Z,39.73
2018-11-11T07:13:24.009Z,35.07
2018-11-11T07:15:52.663Z,28.53
2018-11-11T07:18:21.086Z,44.03
2018-11-11T07:20:49.524Z,50.20
2018-11-11T07:23:17.940Z,46.63
2018-11-11T07:25:46.395Z,46.17
2018-11-11T07:28:14.880Z,73.07
2018-11-11T07:30:44.664Z,54.90
2018-11-11T07:33:14.167Z,54.97
2018-11-11T07:35:42.628Z,60.00
2018-11-11T07:38:11.061Z,36.50
2018-11-11T07:40:39.501Z,55.43
2018-11-11T07:43:07.916Z,49.63
2018-11-11T07:45:36.403Z,39.47
2018-11-11T07:48:05.324Z,58.37
2018-11-11T07:50:33.656Z,52.10
2018-11-11T07:53:02.132Z,69.17
2018-11-11T07:55:30.561Z,70.50
2018-11-11T07:57:59.000Z,73.20
2018-11-11T08:00:27.409Z,59.03
2018-11-11T08:02:55.848Z,62.63
2018-11-11T08:05:24.285Z,61.10
2018-11-11T08:07:52.728Z,68.63
2018-11-11T08:10:32.331Z,59.63
2018-11-11T08:13:00.779Z,43.77
2018-11-11T08:15:29.204Z,39.80
2018-11-11T08:17:57.641Z,70.27
2018-11-11T08:20:26.081Z,63.90
2018-11-11T08:22:54.519Z,61.43
2018-11-11T08:25:23.026Z,52.20
2018-11-11T08:27:51.489Z,71.07
2018-11-11T08:30:19.920Z,58.30
2018-11-11T08:32:48.368Z,60.43
2018-11-11T08:35:16.801Z,56.37
2018-11-11T08:37:45.245Z,62.20
2018-11-11T08:40:13.725Z,57.90
2018-11-11T08:42:42.175Z,61.27
2018-11-11T08:45:12.348Z,50.70
2018-11-11T08:47:41.060Z,51.40
2018-11-11T08:50:10.732Z,48.77
2018-11-11T08:52:39.208Z,57.97
2018-11-11T08:55:07.741Z,72.07
2018-11-11T08:57:36.595Z,72.47
2018-11-11T09:00:06.148Z,67.17
2018-11-11T09:02:34.644Z,64.57
2018-11-11T09:05:03.202Z,74.87
2018-11-11T09:07:31.568Z,77.47
2018-11-11T09:10:00.006Z,61.13
2018-11-11T09:12:28.449Z,71.87
2018-11-11T09:14:56.940Z,64.97
2018-11-11T09:17:25.411Z,53.33
2018-11-11T09:19:53.828Z,47.40
2018-11-11T09:22:22.275Z,44.67
2018-11-11T09:24:50.725Z,30.87
2018-11-11T09:27:19.216Z,37.27
2018-11-11T09:29:47.731Z,34.87
2018-11-11T09:32:16.149Z,34.07
2018-11-11T09:34:44.736Z,40.30
2018-11-11T09:37:13.183Z,35.23
2018-11-11T09:39:41.647Z,37.67
2018-11-11T09:42:10.116Z,39.70
2018-11-11T09:44:38.583Z,32.40
2018-11-11T09:47:07.135Z,32.80
2018-11-11T09:49:35.684Z,25.77
2018-11-11T09:52:04.184Z,27.80
2018-11-11T09:54:32.645Z,30.60
2018-11-11T09:57:01.228Z,26.63
2018-11-11T09:59:29.693Z,28.93
2018-11-11T10:01:58.192Z,30.33
2018-11-11T10:04:47.022Z,28.53
2018-11-11T10:08:21.485Z,30.43
2018-11-11T10:10:55.288Z,23.70
2018-11-11T10:14:34.869Z,20.37
2018-11-11T10:17:08.647Z,17.57
2018-11-11T10:19:44.840Z,20.27
2018-11-11T10:22:24.787Z,17.10
2018-11-11T10:25:05.272Z,21.40
2018-11-11T10:27:38.052Z,20.50
2018-11-11T10:30:12.041Z,10.90
2018-11-11T10:33:27.511Z,12.23
2018-11-11T10:36:01.472Z,13.47
2018-11-11T10:38:33.173Z,16.00
2018-11-11T10:41:05.773Z,13.27
2018-11-11T10:43:41.101Z,13.70
2018-11-11T10:46:17.490Z,12.80
2018-11-11T10:48:50.680Z,18.27
2018-11-11T10:51:19.172Z,17.57
2018-11-11T10:53:47.605Z,18.33
2018-11-11T10:56:16.068Z,16.13
2018-11-11T10:58:44.523Z,21.53
2018-11-11T11:02:22.053Z,18.40
2018-11-11T11:04:55.680Z,22.07
2018-11-11T11:07:24.152Z,19.03
2018-11-11T11:09:52.628Z,15.23
2018-11-11T11:12:21.076Z,23.33
2018-11-11T11:14:49.580Z,16.10
2018-11-11T11:17:18.043Z,19.10
2018-11-11T11:19:46.477Z,24.97
2018-11-11T11:22:14.936Z,21.30
2018-11-11T11:24:43.364Z,23.43
2018-11-11T11:27:11.888Z,14.43
2018-11-11T11:29:40.289Z,22.20
2018-11-11T11:32:08.844Z,19.40
2018-11-11T11:34:37.189Z,19.07
2018-11-11T11:37:05.748Z,17.80
2018-11-11T11:39:34.184Z,16.40
2018-11-11T11:42:02.640Z,21.27
2018-11-11T11:44:31.064Z,17.00
2018-11-11T11:46:59.484Z,19.73
2018-11-11T11:49:27.928Z,17.23
2018-11-11T11:51:56.366Z,21.13
2018-11-11T11:54:24.844Z,15.40
2018-11-11T11:56:53.264Z,16.47
2018-11-11T11:59:21.712Z,15.23
2018-11-11T12:01:50.136Z,15.10
2018-11-11T12:04:18.597Z,12.27
2018-11-11T12:06:47.032Z,14.67
2018-11-11T12:09:15.810Z,15.23
2018-11-11T12:11:44.232Z,11.90
2018-11-11T12:14:12.691Z,13.30
2018-11-11T12:16:41.146Z,11.53
2018-11-11T12:19:09.589Z,12.27
2018-11-11T12:21:38.012Z,13.40
2018-11-11T12:24:06.468Z,11.60
2018-11-11T12:26:34.933Z,12.87
2018-11-11T12:29:03.391Z,14.80
2018-11-11T12:31:31.839Z,13.03
2018-11-11T12:34:00.282Z,13.30
2018-11-11T12:36:28.704Z,15.27
2018-11-11T12:38:57.177Z,13.77
2018-11-11T12:41:25.600Z,14.30
2018-11-11T12:43:54.036Z,11.33
2018-11-11T12:46:22.473Z,9.70
2018-11-11T12:48:50.954Z,10.43
2018-11-11T12:51:19.349Z,7.90
2018-11-11T12:53:47.780Z,7.80
2018-11-11T12:56:16.188Z,7.03
2018-11-11T12:58:44.635Z,4.00
2018-11-11T13:01:13.064Z,4.77
2018-11-11T13:03:41.489Z,6.30
2018-11-11T13:06:09.928Z,7.43
2018-11-11T13:08:38.409Z,4.10
2018-11-11T13:11:06.845Z,4.93
2018-11-11T13:13:35.272Z,6.27
2018-11-11T13:16:03.719Z,3.40
2018-11-11T13:18:32.308Z,7.30
2018-11-11T13:21:00.768Z,4.03
2018-11-11T13:23:29.240Z,4.40
2018-11-11T13:25:57.684Z,3.60
2018-11-11T13:28:26.172Z,3.03
2018-11-11T13:30:54.608Z,6.00
2018-11-11T13:33:23.048Z,4.03
2018-11-11T13:35:51.739Z,5.20
2018-11-11T13:38:20.319Z,3.37
2018-11-11T13:40:48.709Z,3.93
2018-11-11T13:43:17.183Z,5.30
2018-11-11T13:45:45.597Z,2.40
2018-11-11T13:48:14.016Z,5.03
2018-11-11T13:50:42.472Z,2.43
2018-11-11T13:53:10.897Z,3.43
2018-11-11T13:55:39.371Z,1.87
2018-11-11T13:58:07.791Z,5.63
2018-11-11T14:00:36.260Z,5.03
2018-11-11T14:03:04.768Z,1.57
2018-11-11T14:05:33.225Z,1.70
2018-11-11T14:08:01.664Z,3.47
2018-11-11T14:10:30.132Z,2.37
2018-11-11T14:12:58.563Z,5.27
2018-11-11T14:15:27.049Z,1.77
2018-11-11T14:17:56.179Z,2.40
2018-11-11T14:20:25.420Z,5.83
2018-11-11T14:22:54.870Z,3.40
2018-11-11T14:25:26.084Z,1.73
2018-11-11T14:27:54.472Z,6.17
2018-11-11T14:30:25.212Z,6.80
2018-11-11T14:32:54.472Z,1.67
2018-11-11T14:35:22.938Z,4.83
2018-11-11T14:37:51.636Z,1.67
2018-11-11T14:40:23.484Z,3.43
2018-11-11T14:42:51.932Z,2.97
2018-11-11T14:45:20.892Z,1.20
2018-11-11T14:47:50.628Z,2.83
2018-11-11T14:50:19.730Z,3.13
2018-11-11T14:52:48.416Z,1.17
2018-11-11T14:55:18.619Z,1.83
2018-11-11T14:57:47.054Z,1.17
2018-11-11T15:00:18.020Z,1.23
2018-11-11T15:02:49.360Z,5.60
2018-11-11T15:05:17.786Z,3.30
2018-11-11T15:07:46.278Z,3.00
2018-11-11T15:10:14.668Z,2.77
2018-11-11T15:12:43.148Z,3.23
2018-11-11T15:15:15.116Z,1.90
2018-11-11T15:17:44.351Z,2.80
2018-11-11T15:20:13.895Z,3.50
2018-11-11T15:22:42.768Z,5.03
2018-11-11T15:25:12.875Z,4.80
2018-11-11T15:27:42.136Z,5.97
2018-11-11T15:30:13.239Z,2.30
2018-11-11T15:32:42.027Z,2.13
2018-11-11T15:35:10.461Z,6.53
2018-11-11T15:37:39.185Z,1.30
2018-11-11T15:40:11.541Z,2.00
2018-11-11T15:42:40.244Z,1.60
2018-11-11T15:45:13.275Z,2.00
2018-11-11T15:47:41.739Z,3.33
2018-11-11T15:50:12.329Z,1.50
2018-11-11T15:52:41.455Z,1.90
2018-11-11T15:55:11.553Z,1.00
2018-11-11T15:57:40.095Z,3.07
2018-11-11T16:00:13.837Z,2.70
2018-11-11T16:02:42.584Z,1.40
2018-11-11T16:05:11.934Z,1.00
2018-11-11T16:07:41.158Z,4.30
2018-11-11T16:10:11.507Z,1.10
2018-11-11T16:12:40.012Z,1.23
2018-11-11T16:15:14.452Z,1.80
2018-11-11T16:17:43.776Z,1.77
2018-11-11T16:20:15.030Z,1.03
2018-11-11T16:22:44.745Z,1.00
2018-11-11T16:25:13.401Z,2.83
2018-11-11T16:27:42.932Z,2.40
2018-11-11T16:30:14.063Z,3.10
2018-11-11T16:32:43.084Z,2.43
2018-11-11T16:35:13.064Z,1.53
2018-11-11T16:37:41.645Z,3.43
2018-11-11T16:40:13.225Z,1.70
2018-11-11T16:42:41.927Z,2.13
2018-11-11T16:45:12.152Z,1.67
2018-11-11T16:47:40.623Z,1.90
2018-11-11T16:50:11.585Z,4.13
2018-11-11T16:52:41.460Z,1.90
2018-11-11T16:55:11.244Z,4.60
2018-11-11T16:57:39.644Z,1.80
2018-11-11T17:00:11.520Z,1.83
2018-11-11T17:02:39.928Z,2.47
2018-11-11T17:05:10.960Z,0.90
2018-11-11T17:07:39.475Z,1.00
2018-11-11T17:10:10.264Z,2.60
2018-11-11T17:12:39.032Z,1.30
2018-11-11T17:15:08.769Z,2.57
2018-11-11T17:17:37.236Z,2.93
2018-11-11T17:20:06.919Z,1.63
2018-11-11T17:22:35.500Z,1.77
2018-11-11T17:25:03.908Z,1.40
2018-11-11T17:27:32.356Z,2.03
2018-11-11T17:30:00.877Z,1.07
2018-11-11T17:32:29.326Z,1.73
2018-11-11T17:34:57.726Z,10.20
2018-11-11T17:37:26.160Z,4.83
2018-11-11T17:39:54.607Z,1.23
2018-11-11T17:42:23.061Z,1.83
2018-11-11T17:44:51.512Z,5.23
2018-11-11T17:47:19.942Z,3.70
2018-11-11T17:49:48.388Z,1.10
2018-11-11T17:52:16.822Z,5.63
2018-11-11T17:54:45.280Z,1.43
2018-11-11T17:57:13.727Z,1.27
2018-11-11T17:59:42.153Z,1.13
2018-11-11T18:02:10.605Z,1.33
2018-11-11T18:04:39.030Z,1.03
2018-11-11T18:07:07.492Z,1.43
2018-11-11T18:09:35.929Z,2.13
2018-11-11T18:12:04.426Z,2.10
2018-11-11T18:14:32.872Z,2.77
2018-11-11T18:17:01.330Z,2.60
2018-11-11T18:19:29.772Z,1.60
2018-11-11T18:21:58.345Z,1.10
2018-11-11T18:24:27.721Z,1.30
2018-11-11T18:26:56.291Z,2.03
2018-11-11T18:29:24.739Z,2.63
2018-11-11T18:31:53.196Z,1.57
2018-11-11T18:34:21.733Z,2.30
2018-11-11T18:36:50.168Z,9.00
2018-11-11T18:39:18.599Z,8.80
2018-11-11T18:41:47.128Z,3.33
2018-11-11T18:44:15.509Z,2.10
2018-11-11T18:46:43.964Z,2.40
2018-11-11T18:49:12.404Z,1.60
2018-11-11T18:51:40.864Z,1.50
2018-11-11T18:54:09.327Z,1.40
2018-11-11T18:56:37.796Z,4.27
2018-11-11T18:59:06.484Z,1.10
2018-11-11T19:01:35.073Z,3.27
2018-11-11T19:04:03.547Z,3.03
2018-11-11T19:06:31.987Z,4.93
2018-11-11T19:09:00.427Z,5.57
2018-11-11T19:11:28.865Z,4.23
2018-11-11T19:13:57.348Z,3.40
2018-11-11T19:16:25.812Z,4.03
2018-11-11T19:18:54.339Z,13.17
2018-11-11T19:21:22.718Z,5.77
2018-11-11T19:23:51.289Z,24.47
2018-11-11T19:26:19.669Z,1.03
2018-11-11T19:28:48.128Z,1.87
2018-11-11T19:31:16.544Z,2.00
2018-11-11T19:33:45.059Z,2.10
2018-11-11T19:36:13.420Z,7.43
2018-11-11T19:38:42.202Z,1.70
2018-11-11T19:41:10.673Z,2.07
2018-11-11T19:43:39.100Z,3.10
2018-11-11T19:46:07.597Z,2.93
2018-11-11T19:48:36.062Z,2.87
2018-11-11T19:51:04.496Z,4.03
2018-11-11T19:53:32.964Z,3.03
2018-11-11T19:56:01.389Z,6.23
2018-11-11T19:58:29.828Z,2.80
2018-11-11T20:00:58.257Z,9.97
2018-11-11T20:03:26.712Z,4.47
2018-11-11T20:05:55.214Z,5.50
2018-11-11T20:08:23.591Z,3.47
2018-11-11T20:10:52.010Z,6.30
2018-11-11T20:13:20.457Z,2.60
2018-11-11T20:15:48.876Z,6.30
2018-11-11T20:18:17.311Z,3.53
2018-11-11T20:20:45.726Z,3.43
2018-11-11T20:23:14.161Z,4.30
2018-11-11T20:25:42.577Z,4.07
2018-11-11T20:28:11.115Z,3.97
2018-11-11T20:30:39.523Z,5.03
2018-11-11T20:33:08.061Z,2.93
2018-11-11T20:35:36.543Z,2.83
2018-11-11T20:38:05.064Z,3.10
2018-11-11T20:40:33.532Z,3.60
2018-11-11T20:43:01.988Z,6.33
2018-11-11T20:45:31.891Z,4.57
2018-11-11T20:48:00.335Z,3.17
2018-11-11T20:50:30.075Z,4.00
2018-11-11T20:52:59.807Z,3.37
2018-11-11T20:55:28.319Z,2.30
2018-11-11T20:57:56.792Z,2.30
2018-11-11T21:00:26.560Z,2.20
2018-11-11T21:02:55.024Z,3.77
2018-11-11T21:05:24.859Z,3.00
2018-11-11T21:07:53.405Z,4.70
2018-11-11T21:10:23.188Z,4.40
2018-11-11T21:12:51.706Z,2.43
2018-11-11T21:15:21.462Z,3.70
2018-11-11T21:17:50.024Z,2.30
2018-11-11T21:20:19.979Z,3.97
2018-11-11T21:22:48.408Z,2.70
2018-11-11T21:25:16.927Z,2.80
2018-11-11T21:27:46.424Z,2.67
2018-11-11T21:30:18.227Z,7.07
2018-11-11T21:32:46.948Z,3.77
2018-11-11T21:35:15.431Z,5.77
2018-11-11T21:37:43.954Z,3.73
2018-11-11T21:40:14.460Z,3.50
2018-11-11T21:42:43.537Z,3.97
2018-11-11T21:45:13.340Z,4.00
2018-11-11T21:47:42.137Z,3.40
2018-11-11T21:50:12.601Z,2.23
2018-11-11T21:52:41.688Z,2.73
2018-11-11T21:55:10.387Z,2.50
2018-11-11T21:57:38.908Z,2.93
2018-11-11T22:00:09.637Z,2.90
2018-11-11T22:02:38.153Z,2.40
2018-11-11T22:05:08.280Z,1.90
2018-11-11T22:07:36.985Z,2.03
2018-11-11T22:10:07.164Z,2.63
2018-11-11T22:12:35.661Z,2.77
2018-11-11T22:15:04.225Z,2.20
2018-11-11T22:17:32.679Z,3.03
2018-11-11T22:20:01.108Z,4.60
2018-11-11T22:22:29.724Z,3.17
2018-11-11T22:24:58.117Z,4.47
2018-11-11T22:27:26.664Z,3.80
2018-11-11T22:29:55.096Z,3.10
2018-11-11T22:32:23.560Z,5.63
2018-11-11T22:34:52.077Z,10.53
2018-11-11T22:37:20.540Z,5.77
2018-11-11T22:39:49.016Z,7.53
2018-11-11T22:42:17.486Z,4.60
2018-11-11T22:44:45.933Z,6.23
2018-11-11T22:47:14.636Z,5.23
2018-11-11T22:49:43.076Z,4.90
2018-11-11T22:52:11.536Z,9.50
2018-11-11T22:54:39.973Z,6.23
2018-11-11T22:57:08.428Z,4.93
2018-11-11T22:59:36.924Z,4.83
2018-11-11T23:02:05.492Z,6.87
2018-11-11T23:04:33.945Z,4.57
2018-11-11T23:07:02.391Z,3.57
2018-11-11T23:09:30.841Z,4.43
2018-11-11T23:11:59.270Z,3.50
2018-11-11T23:14:27.720Z,3.70
2018-11-11T23:16:56.155Z,4.47
2018-11-11T23:19:24.620Z,3.40
2018-11-11T23:21:53.045Z,5.33
2018-11-11T23:24:21.516Z,4.60
2018-11-11T23:26:49.955Z,4.13
2018-11-11T23:29:18.405Z,3.87
2018-11-11T23:31:46.829Z,5.60
2018-11-11T23:34:15.378Z,5.53
2018-11-11T23:36:43.859Z,5.23
2018-11-11T23:39:12.264Z,4.80
2018-11-11T23:41:40.731Z,5.83
2018-11-11T23:44:09.723Z,6.30
2018-11-11T23:46:38.908Z,7.20
2018-11-11T23:49:08.020Z,9.13
2018-11-11T23:51:36.484Z,4.27
2018-11-11T23:54:05.250Z,5.93
2018-11-11T23:56:33.667Z,4.67
2018-11-11T23:59:02.104Z,5.80
